createdAt,value
2023-02-17T00:00:39.852Z,-0.50
2023-02-17T00:02:41.698Z,-0.60
2023-02-17T00:04:43.524Z,-0.60
2023-02-17T00:06:45.219Z,-0.60
2023-02-17T00:08:47.698Z,-0.60
2023-02-17T00:10:58.860Z,-0.70
2023-02-17T00:13:00.606Z,-0.70
2023-02-17T00:15:02.347Z,-0.70
2023-02-17T00:17:04.127Z,-0.80
2023-02-17T00:19:25.009Z,-0.80
2023-02-17T00:21:28.600Z,-0.80
2023-02-17T00:23:30.337Z,-0.80
2023-02-17T00:25:32.032Z,-0.90
2023-02-17T00:27:33.762Z,-0.90
2023-02-17T00:29:35.524Z,-0.90
2023-02-17T00:31:37.323Z,-0.90
2023-02-17T00:33:39.214Z,-1.00
2023-02-17T00:35:41.710Z,-0.90
2023-02-17T00:37:45.647Z,-0.90
2023-02-17T00:39:47.636Z,-0.90
2023-02-17T00:41:49.814Z,-0.90
2023-02-17T00:43:51.586Z,-0.90
2023-02-17T00:45:53.314Z,-0.90
2023-02-17T00:47:55.111Z,-0.90
2023-02-17T00:49:56.829Z,-0.90
2023-02-17T00:52:02.076Z,-0.90
2023-02-17T00:54:03.920Z,-0.90
2023-02-17T00:56:06.120Z,-0.80
2023-02-17T00:58:08.071Z,-0.80
2023-02-17T01:00:10.113Z,-0.90
2023-02-17T01:02:11.847Z,-0.80
2023-02-17T01:04:13.791Z,-0.90
2023-02-17T01:06:21.691Z,-0.90
2023-02-17T01:08:23.744Z,-0.90
2023-02-17T01:10:25.515Z,-0.90
2023-02-17T01:12:28.739Z,-0.80
2023-02-17T01:14:30.449Z,-0.90
2023-02-17T01:16:36.797Z,-1.00
2023-02-17T01:18:38.535Z,-0.90
2023-02-17T01:20:41.095Z,-1.00
2023-02-17T01:22:42.852Z,-1.00
2023-02-17T01:24:44.610Z,-1.10
2023-02-17T01:26:46.364Z,-1.10
2023-02-17T01:28:48.459Z,-1.00
2023-02-17T01:30:50.361Z,-0.90
2023-02-17T01:32:52.474Z,-1.00
2023-02-17T01:34:56.532Z,-1.10
2023-02-17T01:36:58.316Z,-1.10
2023-02-17T01:39:00.058Z,-1.10
2023-02-17T01:41:01.835Z,-1.10
2023-02-17T01:43:03.907Z,-1.30
2023-02-17T01:45:17.653Z,-1.30
2023-02-17T01:47:19.395Z,-1.30
2023-02-17T01:49:35.411Z,-1.40
2023-02-17T01:51:38.151Z,-1.30
2023-02-17T01:54:01.378Z,-1.40
2023-02-17T01:56:03.835Z,-1.30
2023-02-17T01:58:06.671Z,-1.50
2023-02-17T02:00:09.739Z,-1.40
2023-02-17T02:02:11.759Z,-1.40
2023-02-17T02:04:15.145Z,-1.50
2023-02-17T02:06:20.631Z,-1.50
2023-02-17T02:08:22.440Z,-1.60
2023-02-17T02:10:24.193Z,-1.60
2023-02-17T02:12:27.330Z,-1.70
2023-02-17T02:14:29.472Z,-1.70
2023-02-17T02:16:45.450Z,-1.70
2023-02-17T02:18:53.425Z,-1.70
2023-02-17T02:20:57.301Z,-1.70
2023-02-17T02:23:17.735Z,-1.60
2023-02-17T02:25:31.208Z,-1.70
2023-02-17T02:27:45.955Z,-1.80
2023-02-17T02:29:47.653Z,-1.80
2023-02-17T02:31:55.646Z,-1.80
2023-02-17T02:33:58.919Z,-1.80
2023-02-17T02:36:07.261Z,-1.80
2023-02-17T02:38:20.109Z,-1.70
2023-02-17T02:40:23.689Z,-1.80
2023-02-17T02:42:25.652Z,-1.80
2023-02-17T02:44:27.406Z,-1.80
2023-02-17T02:46:29.166Z,-1.80
2023-02-17T02:48:31.346Z,-1.80
2023-02-17T02:50:44.028Z,-1.80
2023-02-17T02:53:11.840Z,-1.80
2023-02-17T02:55:35.488Z,-1.80
2023-02-17T02:57:46.190Z,-1.70
2023-02-17T02:59:54.920Z,-1.80
2023-02-17T03:02:00.026Z,-1.80
2023-02-17T03:04:16.481Z,-1.80
2023-02-17T03:06:29.842Z,-1.90
2023-02-17T03:08:43.988Z,-1.80
2023-02-17T03:10:50.905Z,-1.90
2023-02-17T03:12:52.770Z,-1.90
2023-02-17T03:14:57.224Z,-1.90
2023-02-17T03:16:58.971Z,-2.00
2023-02-17T03:19:00.790Z,-2.00
2023-02-17T03:21:06.432Z,-2.00
2023-02-17T03:23:08.312Z,-2.10
2023-02-17T03:25:10.158Z,-2.20
2023-02-17T03:27:11.850Z,-2.10
2023-02-17T03:29:13.611Z,-2.10
2023-02-17T03:31:15.453Z,-2.10
2023-02-17T03:33:17.216Z,-2.10
2023-02-17T03:35:18.984Z,-2.20
2023-02-17T03:37:20.779Z,-2.20
2023-02-17T03:39:22.535Z,-2.20
2023-02-17T03:41:24.612Z,-2.20
2023-02-17T03:43:26.393Z,-2.20
2023-02-17T03:45:28.130Z,-2.20
2023-02-17T03:47:29.846Z,-2.30
2023-02-17T03:49:31.616Z,-2.30
2023-02-17T03:51:33.353Z,-2.30
2023-02-17T03:53:35.067Z,-2.30
2023-02-17T03:55:36.779Z,-2.40
2023-02-17T03:57:38.498Z,-2.30
2023-02-17T03:59:40.270Z,-2.30
2023-02-17T04:01:42.219Z,-2.30
2023-02-17T04:03:43.983Z,-2.30
2023-02-17T04:05:45.749Z,-2.40
2023-02-17T04:07:47.586Z,-2.40
2023-02-17T04:09:49.339Z,-2.40
2023-02-17T04:11:51.109Z,-2.50
2023-02-17T04:13:52.895Z,-2.40
2023-02-17T04:15:54.852Z,-2.50
2023-02-17T04:17:56.601Z,-2.50
2023-02-17T04:19:58.417Z,-2.50
2023-02-17T04:22:00.133Z,-2.50
2023-02-17T04:24:02.316Z,-2.50
2023-02-17T04:26:05.260Z,-2.10
2023-02-17T04:28:07.178Z,-2.20
2023-02-17T04:30:12.019Z,-2.40
2023-02-17T04:32:14.050Z,-2.50
2023-02-17T04:34:15.788Z,-2.60
2023-02-17T04:36:17.548Z,-2.60
2023-02-17T04:38:19.369Z,-2.60
2023-02-17T04:40:21.278Z,-2.40
2023-02-17T04:42:22.999Z,-2.60
2023-02-17T04:44:24.745Z,-2.60
2023-02-17T04:46:26.545Z,-2.70
2023-02-17T04:48:28.630Z,-2.60
2023-02-17T04:50:30.434Z,-2.60
2023-02-17T04:52:32.190Z,-2.70
2023-02-17T04:54:33.923Z,-2.70
2023-02-17T04:56:35.678Z,-2.70
2023-02-17T04:58:37.478Z,-2.70
2023-02-17T05:00:39.207Z,-2.80
2023-02-17T05:02:40.981Z,-2.80
2023-02-17T05:04:44.534Z,-2.70
2023-02-17T05:06:47.352Z,-2.70
2023-02-17T05:08:50.714Z,-2.60
2023-02-17T05:10:52.620Z,-2.70
2023-02-17T05:12:54.455Z,-2.70
2023-02-17T05:14:56.237Z,-2.70
2023-02-17T05:16:57.972Z,-2.70
2023-02-17T05:18:59.682Z,-2.70
2023-02-17T05:21:01.473Z,-2.60
2023-02-17T05:23:03.292Z,-2.60
2023-02-17T05:25:05.314Z,-2.60
2023-02-17T05:27:07.670Z,-2.60
2023-02-17T05:29:09.418Z,-2.60
2023-02-17T05:31:11.403Z,-2.50
2023-02-17T05:33:13.225Z,-2.50
2023-02-17T05:35:14.959Z,-2.30
2023-02-17T05:37:16.762Z,-2.30
2023-02-17T05:39:18.583Z,-2.30
2023-02-17T05:41:21.716Z,-2.40
2023-02-17T05:43:23.521Z,-2.40
2023-02-17T05:45:25.270Z,-2.40
2023-02-17T05:47:27.744Z,-2.30
2023-02-17T05:49:29.624Z,-2.30
2023-02-17T05:51:32.454Z,-2.30
2023-02-17T05:53:34.203Z,-2.20
2023-02-17T05:55:35.972Z,-2.20
2023-02-17T05:57:37.737Z,-2.00
2023-02-17T05:59:39.509Z,-2.00
2023-02-17T06:01:41.207Z,-1.90
2023-02-17T06:03:43.013Z,-1.90
2023-02-17T06:05:45.250Z,-2.00
2023-02-17T06:07:47.007Z,-2.00
2023-02-17T06:09:48.795Z,-2.00
2023-02-17T06:11:50.555Z,-2.00
2023-02-17T06:13:52.303Z,-1.90
2023-02-17T06:15:54.144Z,-1.80
2023-02-17T06:17:55.966Z,-1.80
2023-02-17T06:19:57.660Z,-2.00
2023-02-17T06:21:59.521Z,-1.90
2023-02-17T06:24:01.287Z,-1.90
2023-02-17T06:26:03.065Z,-1.80
2023-02-17T06:28:06.567Z,-1.80
2023-02-17T06:30:08.746Z,-1.70
2023-02-17T06:32:10.603Z,-1.50
2023-02-17T06:34:12.587Z,-1.50
2023-02-17T06:36:14.373Z,-1.30
2023-02-17T06:38:16.175Z,-1.30
2023-02-17T06:40:18.134Z,-1.20
2023-02-17T06:42:21.398Z,-1.00
2023-02-17T06:44:23.149Z,-0.80
2023-02-17T06:46:24.906Z,-0.50
2023-02-17T06:48:26.614Z,-0.40
2023-02-17T06:50:29.583Z,-0.10
2023-02-17T06:52:31.387Z,0.00
2023-02-17T06:54:33.108Z,0.10
2023-02-17T06:56:34.852Z,0.10
2023-02-17T06:58:37.353Z,0.00
2023-02-17T07:00:39.212Z,0.20
2023-02-17T07:02:41.078Z,0.30
2023-02-17T07:04:45.751Z,0.10
2023-02-17T07:06:47.481Z,0.00
2023-02-17T07:08:49.333Z,0.00
2023-02-17T07:10:51.135Z,0.10
2023-02-17T07:12:52.918Z,0.10
2023-02-17T07:14:54.774Z,0.10
2023-02-17T07:16:56.509Z,0.10
2023-02-17T07:18:58.251Z,0.20
2023-02-17T07:21:00.214Z,0.50
2023-02-17T07:23:02.193Z,0.80
2023-02-17T07:25:04.578Z,0.80
2023-02-17T07:27:08.511Z,0.50
2023-02-17T07:29:11.439Z,0.50
2023-02-17T07:31:17.155Z,0.60
2023-02-17T07:33:19.042Z,0.60
2023-02-17T07:35:20.770Z,0.80
2023-02-17T07:37:22.557Z,0.80
2023-02-17T07:39:24.269Z,1.20
2023-02-17T07:41:28.726Z,1.00
2023-02-17T07:43:30.443Z,0.90
2023-02-17T07:45:32.259Z,0.90
2023-02-17T07:47:34.004Z,0.90
2023-02-17T07:49:35.737Z,1.00
2023-02-17T07:51:37.511Z,1.10
2023-02-17T07:53:39.698Z,1.20
2023-02-17T07:55:41.459Z,1.20
2023-02-17T07:57:44.220Z,1.10
2023-02-17T07:59:46.918Z,1.20
2023-02-17T08:01:49.839Z,1.20
2023-02-17T08:03:52.231Z,1.20
2023-02-17T08:05:54.003Z,1.20
2023-02-17T08:08:14.071Z,1.20
2023-02-17T08:10:34.266Z,1.30
2023-02-17T08:12:54.629Z,1.50
2023-02-17T08:14:57.910Z,1.50
2023-02-17T08:16:59.695Z,1.40
2023-02-17T08:19:01.526Z,1.50
2023-02-17T08:21:03.782Z,1.50
2023-02-17T08:23:05.735Z,1.40
2023-02-17T08:25:07.573Z,1.40
2023-02-17T08:27:09.447Z,1.50
2023-02-17T08:29:11.965Z,1.50
2023-02-17T08:31:17.617Z,1.60
2023-02-17T08:33:19.387Z,1.70
2023-02-17T08:35:22.678Z,1.70
2023-02-17T08:37:24.544Z,1.70
2023-02-17T08:39:27.273Z,1.60
2023-02-17T08:41:31.112Z,1.70
2023-02-17T08:43:32.863Z,1.60
2023-02-17T08:45:34.694Z,1.70
2023-02-17T08:47:36.789Z,1.80
2023-02-17T08:49:38.538Z,1.80
2023-02-17T08:51:40.687Z,1.70
2023-02-17T08:53:43.037Z,1.70
2023-02-17T08:55:49.493Z,1.70
2023-02-17T08:57:51.605Z,1.70
2023-02-17T08:59:53.969Z,1.80
2023-02-17T09:01:56.041Z,1.80
2023-02-17T09:03:58.856Z,1.70
2023-02-17T09:06:00.705Z,1.70
2023-02-17T09:08:02.483Z,1.70
2023-02-17T09:10:05.329Z,1.70
2023-02-17T09:12:07.361Z,1.80
2023-02-17T09:14:09.508Z,1.90
2023-02-17T09:16:11.390Z,2.20
2023-02-17T09:18:13.357Z,2.10
2023-02-17T09:20:24.541Z,2.10
2023-02-17T09:22:31.886Z,2.10
2023-02-17T09:24:35.062Z,2.10
2023-02-17T09:26:36.880Z,2.10
2023-02-17T09:28:39.194Z,2.20
2023-02-17T09:30:41.425Z,2.20
2023-02-17T09:32:43.395Z,2.20
2023-02-17T09:34:50.908Z,2.10
2023-02-17T09:36:52.644Z,2.30
2023-02-17T09:38:54.616Z,2.40
2023-02-17T09:41:00.573Z,2.50
2023-02-17T09:43:02.553Z,2.40
2023-02-17T09:45:13.148Z,2.50
2023-02-17T09:47:25.931Z,2.40
2023-02-17T09:49:30.973Z,2.40
2023-02-17T09:51:37.703Z,2.50
2023-02-17T09:53:54.823Z,2.40
2023-02-17T09:55:57.715Z,2.40
2023-02-17T09:58:06.210Z,2.40
2023-02-17T10:00:10.388Z,2.50
2023-02-17T10:02:17.653Z,2.50
2023-02-17T10:04:39.812Z,2.50
2023-02-17T10:06:44.545Z,2.50
2023-02-17T10:08:52.669Z,2.60
2023-02-17T10:10:59.041Z,2.60
2023-02-17T10:13:02.924Z,2.60
2023-02-17T10:15:09.290Z,2.50
2023-02-17T10:17:33.984Z,2.50
2023-02-17T10:19:49.395Z,2.70
2023-02-17T10:21:57.364Z,2.70
2023-02-17T10:23:59.284Z,2.80
2023-02-17T10:26:01.071Z,2.90
2023-02-17T10:28:08.447Z,2.80
2023-02-17T10:30:10.278Z,2.80
2023-02-17T10:32:22.373Z,2.80
2023-02-17T10:34:37.659Z,2.70
2023-02-17T10:36:42.454Z,2.80
2023-02-17T10:38:50.819Z,2.90
2023-02-17T10:40:54.335Z,2.90
2023-02-17T10:42:58.238Z,2.90
2023-02-17T10:45:04.668Z,2.90
2023-02-17T10:47:06.456Z,2.90
2023-02-17T10:49:14.388Z,3.00
2023-02-17T10:51:17.771Z,3.10
2023-02-17T10:53:21.403Z,3.00
2023-02-17T10:55:23.747Z,3.00
2023-02-17T10:57:30.193Z,3.20
2023-02-17T10:59:39.838Z,3.30
2023-02-17T11:01:41.665Z,3.40
2023-02-17T11:03:43.460Z,3.30
2023-02-17T11:05:52.262Z,3.20
2023-02-17T11:07:58.095Z,3.20
2023-02-17T11:10:01.471Z,3.10
2023-02-17T11:12:06.333Z,3.10
2023-02-17T11:14:08.052Z,3.20
2023-02-17T11:16:21.482Z,3.30
2023-02-17T11:18:26.461Z,3.30
2023-02-17T11:20:33.192Z,3.20
2023-02-17T11:22:41.066Z,3.30
2023-02-17T11:24:42.790Z,3.10
2023-02-17T11:26:54.380Z,3.10
2023-02-17T11:29:06.712Z,3.20
2023-02-17T11:31:21.742Z,3.30
2023-02-17T11:33:31.033Z,3.20
2023-02-17T11:35:36.008Z,3.30
2023-02-17T11:37:42.185Z,3.30
2023-02-17T11:39:46.024Z,3.20
2023-02-17T11:41:47.826Z,3.20
2023-02-17T11:43:57.020Z,3.30
2023-02-17T11:46:14.032Z,3.20
2023-02-17T11:48:15.846Z,3.20
2023-02-17T11:50:39.069Z,3.20
2023-02-17T11:53:05.662Z,3.30
2023-02-17T11:55:10.425Z,3.30
2023-02-17T11:57:30.681Z,3.30
2023-02-17T11:59:50.478Z,3.30
2023-02-17T12:02:11.211Z,3.30
2023-02-17T12:04:21.808Z,3.30
2023-02-17T12:06:42.201Z,3.20
2023-02-17T12:09:03.923Z,3.20
2023-02-17T12:11:05.819Z,3.20
2023-02-17T12:13:24.424Z,3.20
2023-02-17T12:15:26.300Z,3.20
2023-02-17T12:17:52.244Z,3.10
2023-02-17T12:20:02.030Z,3.10
2023-02-17T12:22:16.379Z,3.10
2023-02-17T12:24:37.538Z,3.10
2023-02-17T12:26:47.384Z,3.10
2023-02-17T12:28:49.151Z,3.20
2023-02-17T12:30:57.080Z,3.20
2023-02-17T12:33:01.881Z,3.20
2023-02-17T12:35:13.684Z,3.20
2023-02-17T12:37:21.023Z,3.20
2023-02-17T12:39:25.132Z,3.20
2023-02-17T12:41:40.693Z,3.20
2023-02-17T12:43:42.560Z,3.20
2023-02-17T12:45:46.574Z,3.20
2023-02-17T12:47:55.357Z,3.10
2023-02-17T12:50:15.316Z,3.10
2023-02-17T12:52:23.854Z,3.00
2023-02-17T12:54:41.854Z,3.00
2023-02-17T12:56:55.941Z,3.00
2023-02-17T12:59:10.423Z,3.00
2023-02-17T13:01:17.043Z,3.00
2023-02-17T13:03:19.376Z,3.00
2023-02-17T13:05:24.575Z,3.00
2023-02-17T13:07:41.600Z,3.00
2023-02-17T13:09:47.225Z,3.00
2023-02-17T13:11:49.438Z,3.00
2023-02-17T13:13:51.274Z,3.10
2023-02-17T13:16:12.444Z,3.10
2023-02-17T13:18:23.428Z,3.10
2023-02-17T13:20:27.473Z,3.10
2023-02-17T13:22:29.357Z,3.10
2023-02-17T13:24:31.057Z,3.10
2023-02-17T13:26:37.100Z,3.10
2023-02-17T13:28:40.079Z,3.10
2023-02-17T13:30:42.904Z,3.20
2023-02-17T13:32:45.022Z,3.20
2023-02-17T13:34:47.151Z,3.20
2023-02-17T13:36:48.931Z,3.20
2023-02-17T13:39:00.419Z,3.20
2023-02-17T13:41:04.641Z,3.20
2023-02-17T13:43:19.439Z,3.10
2023-02-17T13:45:24.481Z,3.10
2023-02-17T13:47:31.203Z,3.10
2023-02-17T13:49:35.149Z,3.10
2023-02-17T13:51:37.471Z,3.10
2023-02-17T13:53:40.871Z,3.10
2023-02-17T13:55:44.394Z,3.10
2023-02-17T13:57:51.525Z,3.10
2023-02-17T13:59:53.547Z,3.10
2023-02-17T14:01:55.489Z,3.10
2023-02-17T14:03:57.342Z,3.10
2023-02-17T14:05:59.936Z,3.10
2023-02-17T14:08:17.449Z,3.00
2023-02-17T14:10:21.696Z,3.10
2023-02-17T14:12:24.564Z,3.00
2023-02-17T14:14:29.370Z,3.10
2023-02-17T14:16:33.235Z,3.10
2023-02-17T14:18:39.908Z,3.00
2023-02-17T14:20:41.958Z,3.00
2023-02-17T14:22:48.673Z,3.00
2023-02-17T14:25:01.193Z,3.00
2023-02-17T14:27:05.738Z,3.00
2023-02-17T14:29:08.567Z,3.00
2023-02-17T14:31:11.089Z,3.00
2023-02-17T14:33:16.383Z,3.00
2023-02-17T14:35:18.138Z,3.00
2023-02-17T14:37:23.154Z,3.00
2023-02-17T14:39:24.884Z,3.00
2023-02-17T14:41:27.090Z,3.00
2023-02-17T14:43:28.911Z,3.00
2023-02-17T14:45:30.653Z,3.00
2023-02-17T14:47:32.487Z,3.00
2023-02-17T14:49:34.301Z,2.90
2023-02-17T14:51:37.667Z,2.90
2023-02-17T14:53:40.751Z,2.80
2023-02-17T14:55:48.009Z,2.90
2023-02-17T14:57:49.884Z,2.90
2023-02-17T14:59:57.234Z,2.90
2023-02-17T15:01:59.129Z,2.80
2023-02-17T15:04:02.872Z,2.80
2023-02-17T15:06:07.312Z,2.80
2023-02-17T15:08:13.934Z,2.80
2023-02-17T15:10:20.855Z,2.80
2023-02-17T15:12:22.639Z,2.80
2023-02-17T15:14:24.462Z,2.80
2023-02-17T15:16:26.287Z,2.80
2023-02-17T15:18:28.378Z,2.70
2023-02-17T15:20:30.231Z,2.70
2023-02-17T15:22:32.973Z,2.60
2023-02-17T15:24:35.057Z,2.60
2023-02-17T15:26:36.871Z,2.60
2023-02-17T15:28:38.684Z,2.60
2023-02-17T15:30:40.591Z,2.60
2023-02-17T15:32:43.064Z,2.60
2023-02-17T15:34:45.401Z,2.60
2023-02-17T15:36:47.426Z,2.60
2023-02-17T15:38:49.367Z,2.50
2023-02-17T15:40:51.087Z,2.60
2023-02-17T15:43:03.512Z,2.50
2023-02-17T15:45:05.391Z,2.50
2023-02-17T15:47:10.006Z,2.50
2023-02-17T15:49:12.263Z,2.50
2023-02-17T15:51:19.419Z,2.50
2023-02-17T15:53:21.460Z,2.40
2023-02-17T15:55:25.912Z,2.40
2023-02-17T15:57:28.490Z,2.40
2023-02-17T15:59:30.380Z,2.30
2023-02-17T16:01:33.130Z,2.30
2023-02-17T16:03:34.992Z,2.30
2023-02-17T16:05:36.822Z,2.20
2023-02-17T16:07:39.161Z,2.20
2023-02-17T16:09:40.976Z,2.20
2023-02-17T16:11:50.415Z,2.20
2023-02-17T16:13:53.004Z,2.20
2023-02-17T16:15:57.705Z,2.20
2023-02-17T16:17:59.949Z,2.10
2023-02-17T16:20:03.283Z,2.10
2023-02-17T16:22:05.187Z,2.10
2023-02-17T16:24:07.112Z,2.10
2023-02-17T16:26:29.181Z,2.10
2023-02-17T16:28:32.349Z,2.10
2023-02-17T16:30:35.243Z,2.10
2023-02-17T16:32:37.735Z,2.00
2023-02-17T16:34:40.877Z,2.00
2023-02-17T16:36:43.208Z,2.00
2023-02-17T16:38:45.460Z,1.90
2023-02-17T16:40:49.129Z,1.90
2023-02-17T16:42:51.245Z,2.00
2023-02-17T16:44:56.933Z,1.90
2023-02-17T16:47:02.700Z,1.90
2023-02-17T16:49:15.022Z,1.90
2023-02-17T16:51:17.167Z,1.80
2023-02-17T16:53:19.033Z,1.90
2023-02-17T16:55:22.380Z,1.90
2023-02-17T16:57:24.485Z,1.90
2023-02-17T16:59:26.537Z,1.90
2023-02-17T17:01:28.276Z,1.90
2023-02-17T17:03:30.077Z,1.90
2023-02-17T17:05:31.868Z,1.90
2023-02-17T17:07:33.671Z,1.90
2023-02-17T17:09:35.386Z,1.80
2023-02-17T17:11:37.190Z,1.80
2023-02-17T17:13:38.941Z,1.80
2023-02-17T17:15:44.172Z,1.90
2023-02-17T17:18:00.111Z,1.90
2023-02-17T17:20:01.857Z,1.90
2023-02-17T17:22:03.592Z,1.90
2023-02-17T17:24:05.433Z,1.90
2023-02-17T17:26:25.888Z,1.80
2023-02-17T17:28:28.224Z,1.80
2023-02-17T17:30:32.052Z,1.80
2023-02-17T17:32:33.950Z,1.80
2023-02-17T17:34:35.741Z,1.90
2023-02-17T17:36:41.235Z,1.90
2023-02-17T17:38:43.018Z,2.00
2023-02-17T17:40:50.508Z,1.90
2023-02-17T17:42:52.856Z,1.90
2023-02-17T17:44:54.676Z,1.90
2023-02-17T17:46:56.507Z,1.80
2023-02-17T17:48:59.060Z,1.80
2023-02-17T17:51:00.892Z,1.70
2023-02-17T17:53:02.628Z,1.70
2023-02-17T17:55:04.710Z,1.70
2023-02-17T17:57:06.500Z,1.70
2023-02-17T17:59:08.367Z,1.70
2023-02-17T18:01:11.466Z,1.70
2023-02-17T18:03:13.467Z,1.70
2023-02-17T18:05:15.490Z,1.70
2023-02-17T18:07:17.755Z,1.60
2023-02-17T18:09:31.176Z,1.70
2023-02-17T18:11:34.803Z,1.70
2023-02-17T18:13:36.876Z,1.70
2023-02-17T18:15:39.713Z,1.80
2023-02-17T18:17:42.021Z,1.80
2023-02-17T18:19:44.742Z,1.80
2023-02-17T18:21:47.829Z,1.80
2023-02-17T18:23:49.638Z,1.70
2023-02-17T18:25:51.623Z,1.70
2023-02-17T18:27:53.456Z,1.70
2023-02-17T18:29:56.505Z,1.80
2023-02-17T18:31:59.457Z,1.70
2023-02-17T18:34:01.363Z,1.80
2023-02-17T18:36:13.736Z,1.90
2023-02-17T18:38:15.538Z,1.80
2023-02-17T18:40:19.692Z,1.70
2023-02-17T18:42:21.424Z,1.70
2023-02-17T18:44:23.235Z,1.80
2023-02-17T18:46:26.950Z,1.80
2023-02-17T18:48:28.985Z,1.80
2023-02-17T18:50:33.951Z,1.80
2023-02-17T18:52:39.630Z,1.80
2023-02-17T18:54:45.314Z,1.80
2023-02-17T18:56:47.147Z,1.70
2023-02-17T18:58:49.935Z,1.80
2023-02-17T19:00:51.714Z,1.90
2023-02-17T19:02:53.617Z,1.90
2023-02-17T19:04:56.148Z,1.90
2023-02-17T19:07:03.273Z,1.80
2023-02-17T19:09:05.479Z,1.80
2023-02-17T19:11:08.277Z,1.70
2023-02-17T19:13:10.108Z,1.70
2023-02-17T19:15:13.994Z,1.70
2023-02-17T19:17:18.373Z,1.70
2023-02-17T19:19:20.230Z,1.80
2023-02-17T19:21:22.347Z,1.80
2023-02-17T19:23:24.101Z,1.80
2023-02-17T19:25:29.009Z,1.70
2023-02-17T19:27:30.986Z,1.70
2023-02-17T19:29:32.879Z,1.80
2023-02-17T19:31:34.823Z,1.80
2023-02-17T19:33:37.028Z,1.80
2023-02-17T19:35:43.812Z,1.80
2023-02-17T19:37:45.546Z,1.80
2023-02-17T19:39:47.446Z,1.80
2023-02-17T19:41:49.311Z,1.90
2023-02-17T19:43:51.095Z,1.80
2023-02-17T19:45:52.878Z,1.80
2023-02-17T19:47:54.927Z,1.70
2023-02-17T19:49:56.929Z,1.70
2023-02-17T19:51:58.949Z,1.60
2023-02-17T19:54:01.500Z,1.70
2023-02-17T19:56:08.639Z,1.60
2023-02-17T19:58:12.585Z,1.70
2023-02-17T20:00:14.570Z,1.70
2023-02-17T20:02:16.496Z,1.60
2023-02-17T20:04:18.279Z,1.60
2023-02-17T20:06:21.870Z,1.60
2023-02-17T20:08:23.655Z,1.70
2023-02-17T20:10:25.430Z,1.80
2023-02-17T20:12:27.358Z,1.70
2023-02-17T20:14:29.151Z,1.70
2023-02-17T20:16:31.373Z,1.70
2023-02-17T20:18:34.849Z,1.70
2023-02-17T20:20:36.776Z,1.70
2023-02-17T20:22:38.816Z,1.70
2023-02-17T20:24:42.106Z,1.70
2023-02-17T20:26:45.371Z,1.70
2023-02-17T20:28:47.908Z,1.70
2023-02-17T20:30:49.749Z,1.70
2023-02-17T20:32:51.620Z,1.70
2023-02-17T20:34:53.565Z,1.60
2023-02-17T20:36:55.835Z,1.70
2023-02-17T20:38:57.720Z,1.60
2023-02-17T20:41:00.406Z,1.60
2023-02-17T20:43:02.666Z,1.60
2023-02-17T20:45:05.237Z,1.60
2023-02-17T20:47:07.714Z,1.60
2023-02-17T20:49:09.621Z,1.60
2023-02-17T20:51:11.432Z,1.60
2023-02-17T20:53:13.577Z,1.50
2023-02-17T20:55:15.502Z,1.50
2023-02-17T20:57:17.465Z,1.50
2023-02-17T20:59:20.790Z,1.50
2023-02-17T21:01:22.564Z,1.60
2023-02-17T21:03:24.282Z,1.40
2023-02-17T21:05:26.682Z,1.40
2023-02-17T21:07:28.466Z,1.40
2023-02-17T21:09:30.517Z,1.50
2023-02-17T21:11:33.137Z,1.40
2023-02-17T21:13:36.356Z,1.40
2023-02-17T21:15:38.220Z,1.40
2023-02-17T21:17:40.064Z,1.40
2023-02-17T21:19:41.985Z,1.30
2023-02-17T21:21:43.793Z,1.40
2023-02-17T21:23:45.791Z,1.40
2023-02-17T21:25:47.514Z,1.40
2023-02-17T21:27:49.337Z,1.50
2023-02-17T21:29:51.230Z,1.50
2023-02-17T21:31:53.259Z,1.40
2023-02-17T21:33:55.442Z,1.30
2023-02-17T21:35:57.220Z,1.30
2023-02-17T21:37:58.995Z,1.40
2023-02-17T21:40:00.871Z,1.30
2023-02-17T21:42:02.679Z,1.40
2023-02-17T21:44:23.182Z,1.30
2023-02-17T21:46:25.192Z,1.30
2023-02-17T21:48:26.987Z,1.30
2023-02-17T21:50:28.724Z,1.30
2023-02-17T21:52:30.514Z,1.40
2023-02-17T21:54:32.435Z,1.30
2023-02-17T21:56:34.285Z,1.30
2023-02-17T21:58:36.130Z,1.20
2023-02-17T22:00:37.877Z,1.20
2023-02-17T22:02:39.743Z,1.30
2023-02-17T22:04:41.525Z,1.20
2023-02-17T22:06:43.438Z,1.20
2023-02-17T22:08:45.976Z,1.40
2023-02-17T22:10:47.902Z,1.30
2023-02-17T22:12:51.058Z,1.30
2023-02-17T22:14:54.305Z,1.30
2023-02-17T22:16:57.462Z,1.20
2023-02-17T22:18:59.326Z,1.30
2023-02-17T22:21:01.115Z,1.30
2023-02-17T22:23:02.833Z,1.20
2023-02-17T22:25:04.674Z,1.10
2023-02-17T22:27:06.397Z,1.10
2023-02-17T22:29:08.524Z,1.10
2023-02-17T22:31:14.629Z,1.00
2023-02-17T22:33:16.659Z,1.20
2023-02-17T22:35:20.977Z,1.10
2023-02-17T22:37:22.719Z,1.10
2023-02-17T22:39:24.712Z,1.10
2023-02-17T22:41:26.590Z,1.00
2023-02-17T22:43:28.321Z,1.00
2023-02-17T22:45:30.791Z,1.10
2023-02-17T22:47:34.888Z,1.10
2023-02-17T22:49:36.829Z,1.10
2023-02-17T22:51:39.991Z,1.20
2023-02-17T22:53:42.514Z,1.20
2023-02-17T22:55:50.900Z,1.30
2023-02-17T22:57:52.611Z,1.20
2023-02-17T22:59:54.378Z,1.20
2023-02-17T23:01:58.287Z,1.20
2023-02-17T23:04:00.349Z,1.10
2023-02-17T23:06:03.175Z,1.10
2023-02-17T23:08:05.047Z,1.10
2023-02-17T23:10:07.183Z,1.00
2023-02-17T23:12:08.953Z,1.10
2023-02-17T23:14:11.506Z,1.10
2023-02-17T23:16:18.063Z,1.10
2023-02-17T23:18:20.115Z,1.10
2023-02-17T23:20:22.551Z,1.10
2023-02-17T23:22:24.327Z,1.00
2023-02-17T23:24:26.563Z,1.00
2023-02-17T23:26:28.313Z,1.10
2023-02-17T23:28:30.262Z,1.00
2023-02-17T23:30:32.542Z,1.10
2023-02-17T23:32:34.367Z,1.00
2023-02-17T23:34:36.210Z,0.90
2023-02-17T23:36:41.673Z,0.80
2023-02-17T23:38:43.426Z,0.90
2023-02-17T23:40:49.365Z,0.90
2023-02-17T23:42:51.078Z,1.00
2023-02-17T23:44:53.326Z,1.00
2023-02-17T23:46:55.090Z,1.00
2023-02-17T23:48:56.829Z,0.90
2023-02-17T23:50:59.785Z,0.90
2023-02-17T23:53:01.557Z,0.90
2023-02-17T23:55:05.907Z,0.90
2023-02-17T23:57:07.663Z,0.90
2023-02-17T23:59:09.409Z,0.90
